Mobile Regional Airport
KMOB : now visible

Airfield :











YOU CAN JOIN US ON...

 
LOGIN :

Register | Disclaimer

   EN    FR    IT 

 









Legend :    VFR   Marginal VFR   IFR   Intensive IFR   Very Intensive IFR
Visi :
Ceiling :
>= 8 km
>= 3000ft
5 to 8 km
1000 to 3000 ft
1500m to 5 km
500 to 1000 ft
800 to 1500m
200 to 500 ft
< 800m
< 200 ft
Symbols :   Thunderstorms  Fog  Heavy snow  Heavy precipitations  Wind > 20 kt






- Airport Elevation : 219 ft
- IATA code : MOB


KMOB - Mobile Regional

CURRENT METAR :
  • 200856Z AUTO 31003KT 10SM BKN100 14/11 A2999 RMK AO2 SLP152 T01390111 56005

EXPIRED METARs :
  • 200756Z AUTO 00000KT 10SM FEW120 13/12 A2999 RMK AO2 SLP153 T01330117
  • 200656Z AUTO 00000KT 10SM FEW120 14/12 A3000 RMK AO2 SLP155 T01390122

TAF KMOB
Valid from the 20 at 06:00 until the 21 at 06:00 UTC


200520Z 2006/2106 00000KT P6SM BKN180
FM201500 02007KT P6SM BKN250
FM202100 21006KT P6SM SCT250
FM210300 26002KT P6SM FEW250
KZHU FIR / North America



MET'MAP, your aeronautical weather chart ! - Copyright ORBIFLY December 2007 - Disclaimer

ORBIFLY MET'MAP TEAM :

Programming & Development : Alexandra Zaïnal
Concept & original design : Baudouin d'Aumeries
Assistance for programming : Marc-Olivier Méhu
Technical & hardware support : Manuel Goepfert

Contact : metmap@orbifly.com




SOURCES & CREDITS :

   NOAA       Earth
Advisory